sensor_id;sensor_type;location;lat;lon;timestamp;pressure;altitude;pressure_sealevel;temperature
73894;BMP280;62699;50.534;12.784;2022-11-11T00:04:25;97748.50;;;3.09
73894;BMP280;62699;50.534;12.784;2022-11-11T00:09:27;97760.66;;;3.10
73894;BMP280;62699;50.534;12.784;2022-11-11T00:14:28;97751.53;;;3.11
73894;BMP280;62699;50.534;12.784;2022-11-11T00:19:28;97758.03;;;3.07
73894;BMP280;62699;50.534;12.784;2022-11-11T00:24:48;97769.44;;;3.07
73894;BMP280;62699;50.534;12.784;2022-11-11T00:30:07;97784.56;;;3.14
73894;BMP280;62699;50.534;12.784;2022-11-11T00:35:08;97788.41;;;3.09
73894;BMP280;62699;50.534;12.784;2022-11-11T00:40:27;97791.19;;;3.02
73894;BMP280;62699;50.534;12.784;2022-11-11T00:45:27;97806.00;;;3.03
73894;BMP280;62699;50.534;12.784;2022-11-11T00:50:28;97808.31;;;2.97
73894;BMP280;62699;50.534;12.784;2022-11-11T00:55:47;97820.63;;;2.88
73894;BMP280;62699;50.534;12.784;2022-11-11T01:00:47;97819.94;;;2.84
73894;BMP280;62699;50.534;12.784;2022-11-11T01:05:49;97812.41;;;2.79
73894;BMP280;62699;50.534;12.784;2022-11-11T01:10:50;97808.63;;;2.76
73894;BMP280;62699;50.534;12.784;2022-11-11T01:15:52;97812.84;;;2.74
73894;BMP280;62699;50.534;12.784;2022-11-11T01:21:04;97820.00;;;2.77
73894;BMP280;62699;50.534;12.784;2022-11-11T01:26:27;97818.22;;;2.66
73894;BMP280;62699;50.534;12.784;2022-11-11T01:31:26;97810.38;;;2.59
73894;BMP280;62699;50.534;12.784;2022-11-11T01:36:27;97813.06;;;2.56
73894;BMP280;62699;50.534;12.784;2022-11-11T01:41:30;97820.69;;;2.54
73894;BMP280;62699;50.534;12.784;2022-11-11T01:51:40;97813.53;;;2.47
73894;BMP280;62699;50.534;12.784;2022-11-11T01:56:43;97806.03;;;2.39
73894;BMP280;62699;50.534;12.784;2022-11-11T02:01:46;97818.59;;;2.35
73894;BMP280;62699;50.534;12.784;2022-11-11T02:06:48;97817.56;;;2.29
73894;BMP280;62699;50.534;12.784;2022-11-11T02:11:50;97819.47;;;2.28
73894;BMP280;62699;50.534;12.784;2022-11-11T02:17:13;97829.78;;;2.22
73894;BMP280;62699;50.534;12.784;2022-11-11T02:22:19;97827.53;;;2.17
73894;BMP280;62699;50.534;12.784;2022-11-11T02:27:22;97822.59;;;2.16
73894;BMP280;62699;50.534;12.784;2022-11-11T02:32:23;97820.75;;;2.13
73894;BMP280;62699;50.534;12.784;2022-11-11T02:37:25;97824.56;;;2.12
73894;BMP280;62699;50.534;12.784;2022-11-11T02:42:26;97816.22;;;2.10
73894;BMP280;62699;50.534;12.784;2022-11-11T02:47:26;97815.13;;;2.04
73894;BMP280;62699;50.534;12.784;2022-11-11T02:52:26;97817.03;;;2.03
73894;BMP280;62699;50.534;12.784;2022-11-11T02:57:27;97824.25;;;2.03
73894;BMP280;62699;50.534;12.784;2022-11-11T03:02:28;97828.06;;;1.98
73894;BMP280;62699;50.534;12.784;2022-11-11T03:07:28;97820.09;;;1.98
73894;BMP280;62699;50.534;12.784;2022-11-11T03:12:28;97823.53;;;1.99
73894;BMP280;62699;50.534;12.784;2022-11-11T03:17:29;97817.03;;;2.03
73894;BMP280;62699;50.534;12.784;2022-11-11T03:22:38;97823.88;;;2.01
73894;BMP280;62699;50.534;12.784;2022-11-11T03:27:40;97826.94;;;1.96
73894;BMP280;62699;50.534;12.784;2022-11-11T03:32:42;97829.63;;;1.96
73894;BMP280;62699;50.534;12.784;2022-11-11T03:37:42;97837.56;;;1.96
73894;BMP280;62699;50.534;12.784;2022-11-11T03:43:01;97851.25;;;1.94
73894;BMP280;62699;50.534;12.784;2022-11-11T03:48:02;97849.34;;;1.95
73894;BMP280;62699;50.534;12.784;2022-11-11T03:53:04;97861.13;;;1.94
73894;BMP280;62699;50.534;12.784;2022-11-11T03:58:04;97856.59;;;1.91
73894;BMP280;62699;50.534;12.784;2022-11-11T04:03:09;97860.41;;;1.89
73894;BMP280;62699;50.534;12.784;2022-11-11T04:08:28;97854.44;;;1.82
73894;BMP280;62699;50.534;12.784;2022-11-11T04:13:48;97851.78;;;1.82
73894;BMP280;62699;50.534;12.784;2022-11-11T04:19:07;97855.97;;;1.79
73894;BMP280;62699;50.534;12.784;2022-11-11T04:24:26;97861.28;;;1.76
73894;BMP280;62699;50.534;12.784;2022-11-11T04:30:05;97865.13;;;1.71
73894;BMP280;62699;50.534;12.784;2022-11-11T04:35:10;97876.50;;;1.72
73894;BMP280;62699;50.534;12.784;2022-11-11T04:40:11;97873.47;;;1.66
73894;BMP280;62699;50.534;12.784;2022-11-11T04:45:31;97863.25;;;1.65
73894;BMP280;62699;50.534;12.784;2022-11-11T04:50:42;97859.47;;;1.66
73894;BMP280;62699;50.534;12.784;2022-11-11T04:55:44;97862.88;;;1.66
73894;BMP280;62699;50.534;12.784;2022-11-11T05:01:03;97862.50;;;1.64
73894;BMP280;62699;50.534;12.784;2022-11-11T05:06:03;97858.69;;;1.65
73894;BMP280;62699;50.534;12.784;2022-11-11T05:11:32;97862.91;;;1.63
73894;BMP280;62699;50.534;12.784;2022-11-11T05:16:36;97862.16;;;1.62
73894;BMP280;62699;50.534;12.784;2022-11-11T05:22:00;97863.31;;;1.58
73894;BMP280;62699;50.534;12.784;2022-11-11T05:27:04;97861.41;;;1.55
73894;BMP280;62699;50.534;12.784;2022-11-11T05:32:07;97858.00;;;1.54
73894;BMP280;62699;50.534;12.784;2022-11-11T05:37:07;97858.00;;;1.54
73894;BMP280;62699;50.534;12.784;2022-11-11T05:42:08;97843.59;;;1.55
73894;BMP280;62699;50.534;12.784;2022-11-11T05:47:08;97843.97;;;1.57
73894;BMP280;62699;50.534;12.784;2022-11-11T05:52:10;97840.19;;;1.55
73894;BMP280;62699;50.534;12.784;2022-11-11T05:57:11;97838.66;;;1.57
73894;BMP280;62699;50.534;12.784;2022-11-11T06:02:11;97848.50;;;1.60
73894;BMP280;62699;50.534;12.784;2022-11-11T06:07:12;97853.03;;;1.63
73894;BMP280;62699;50.534;12.784;2022-11-11T06:12:12;97865.16;;;1.64
73894;BMP280;62699;50.534;12.784;2022-11-11T06:17:12;97865.91;;;1.65
73894;BMP280;62699;50.534;12.784;2022-11-11T06:22:13;97878.78;;;1.70
73894;BMP280;62699;50.534;12.784;2022-11-11T06:27:13;97886.69;;;1.73
73894;BMP280;62699;50.534;12.784;2022-11-11T06:32:13;97890.81;;;1.85
73894;BMP280;62699;50.534;12.784;2022-11-11T06:37:13;97887.69;;;1.94
73894;BMP280;62699;50.534;12.784;2022-11-11T06:42:14;97885.34;;;2.03
73894;BMP280;62699;50.534;12.784;2022-11-11T06:47:14;97878.41;;;2.16
73894;BMP280;62699;50.534;12.784;2022-11-11T06:52:15;97883.56;;;2.34
73894;BMP280;62699;50.534;12.784;2022-11-11T06:57:15;97880.34;;;2.53
73894;BMP280;62699;50.534;12.784;2022-11-11T07:02:16;97875.84;;;2.77
73894;BMP280;62699;50.534;12.784;2022-11-11T07:07:17;97859.28;;;2.96
73894;BMP280;62699;50.534;12.784;2022-11-11T07:12:17;97873.44;;;3.20
73894;BMP280;62699;50.534;12.784;2022-11-11T07:17:17;97870.84;;;3.43
73894;BMP280;62699;50.534;12.784;2022-11-11T07:22:18;97877.50;;;4.01
73894;BMP280;62699;50.534;12.784;2022-11-11T07:27:18;97879.13;;;6.40
73894;BMP280;62699;50.534;12.784;2022-11-11T07:32:18;97885.28;;;8.23
73894;BMP280;62699;50.534;12.784;2022-11-11T07:37:19;97860.59;;;9.93
73894;BMP280;62699;50.534;12.784;2022-11-11T07:42:19;97857.50;;;8.39
73894;BMP280;62699;50.534;12.784;2022-11-11T07:47:19;97872.13;;;7.34
73894;BMP280;62699;50.534;12.784;2022-11-11T07:52:20;97870.38;;;6.64
73894;BMP280;62699;50.534;12.784;2022-11-11T07:57:22;97881.25;;;6.16
73894;BMP280;62699;50.534;12.784;2022-11-11T08:02:23;97871.56;;;6.22
73894;BMP280;62699;50.534;12.784;2022-11-11T08:07:23;97889.91;;;6.07
73894;BMP280;62699;50.534;12.784;2022-11-11T08:12:24;97888.97;;;6.14
73894;BMP280;62699;50.534;12.784;2022-11-11T08:17:43;97898.41;;;6.18
73894;BMP280;62699;50.534;12.784;2022-11-11T08:22:43;97899.19;;;6.32
73894;BMP280;62699;50.534;12.784;2022-11-11T08:27:43;97907.63;;;6.72
73894;BMP280;62699;50.534;12.784;2022-11-11T08:32:44;97918.53;;;7.06
73894;BMP280;62699;50.534;12.784;2022-11-11T08:37:44;97918.59;;;7.66
73894;BMP280;62699;50.534;12.784;2022-11-11T08:42:44;97921.75;;;7.99
73894;BMP280;62699;50.534;12.784;2022-11-11T08:47:45;97936.38;;;8.41
73894;BMP280;62699;50.534;12.784;2022-11-11T08:52:49;97933.97;;;8.87
73894;BMP280;62699;50.534;12.784;2022-11-11T08:57:57;97951.63;;;8.66
73894;BMP280;62699;50.534;12.784;2022-11-11T09:03:11;97955.25;;;8.72
73894;BMP280;62699;50.534;12.784;2022-11-11T09:08:12;97957.63;;;8.70
73894;BMP280;62699;50.534;12.784;2022-11-11T09:13:12;97977.88;;;9.14
73894;BMP280;62699;50.534;12.784;2022-11-11T09:18:18;97982.84;;;9.74
73894;BMP280;62699;50.534;12.784;2022-11-11T09:23:19;97985.72;;;9.98
73894;BMP280;62699;50.534;12.784;2022-11-11T09:28:19;97987.34;;;10.50
73894;BMP280;62699;50.534;12.784;2022-11-11T09:33:19;97985.28;;;10.45
73894;BMP280;62699;50.534;12.784;2022-11-11T09:38:20;97980.16;;;10.74
73894;BMP280;62699;50.534;12.784;2022-11-11T09:43:29;97984.75;;;10.83
73894;BMP280;62699;50.534;12.784;2022-11-11T09:53:55;97980.97;;;10.98
73894;BMP280;62699;50.534;12.784;2022-11-11T09:59:05;97968.09;;;11.02
73894;BMP280;62699;50.534;12.784;2022-11-11T10:04:15;97965.44;;;10.93
73894;BMP280;62699;50.534;12.784;2022-11-11T10:09:21;97961.53;;;10.94
73894;BMP280;62699;50.534;12.784;2022-11-11T10:14:24;97961.06;;;11.05
73894;BMP280;62699;50.534;12.784;2022-11-11T10:19:47;97947.69;;;11.11
73894;BMP280;62699;50.534;12.784;2022-11-11T10:30:19;97963.25;;;11.16
73894;BMP280;62699;50.534;12.784;2022-11-11T10:35:22;97962.06;;;11.17
73894;BMP280;62699;50.534;12.784;2022-11-11T10:46:16;97953.72;;;11.29
73894;BMP280;62699;50.534;12.784;2022-11-11T10:51:18;97962.25;;;11.37
73894;BMP280;62699;50.534;12.784;2022-11-11T10:56:42;97965.94;;;11.48
73894;BMP280;62699;50.534;12.784;2022-11-11T11:02:13;97967.50;;;11.64
73894;BMP280;62699;50.534;12.784;2022-11-11T11:07:25;97971.69;;;11.89
73894;BMP280;62699;50.534;12.784;2022-11-11T11:12:44;97963.16;;;12.20
73894;BMP280;62699;50.534;12.784;2022-11-11T11:18:05;97966.94;;;12.37
73894;BMP280;62699;50.534;12.784;2022-11-11T11:23:06;97957.25;;;12.60
73894;BMP280;62699;50.534;12.784;2022-11-11T11:33:09;97943.03;;;13.29
73894;BMP280;62699;50.534;12.784;2022-11-11T11:38:11;97944.16;;;13.63
73894;BMP280;62699;50.534;12.784;2022-11-11T11:54:16;97943.97;;;14.38
73894;BMP280;62699;50.534;12.784;2022-11-11T11:59:25;97944.72;;;14.39
73894;BMP280;62699;50.534;12.784;2022-11-11T12:10:22;97937.53;;;14.61
73894;BMP280;62699;50.534;12.784;2022-11-11T12:15:33;97943.53;;;14.71
73894;BMP280;62699;50.534;12.784;2022-11-11T12:20:41;97931.66;;;14.68
73894;BMP280;62699;50.534;12.784;2022-11-11T12:42:39;97922.91;;;14.53
73894;BMP280;62699;50.534;12.784;2022-11-11T12:58:27;97935.13;;;14.43
73894;BMP280;62699;50.534;12.784;2022-11-11T13:19:49;97907.81;;;14.41
73894;BMP280;62699;50.534;12.784;2022-11-11T13:24:51;97899.31;;;14.28
73894;BMP280;62699;50.534;12.784;2022-11-11T13:30:03;97887.16;;;14.18
73894;BMP280;62699;50.534;12.784;2022-11-11T13:35:32;97892.75;;;14.09
73894;BMP280;62699;50.534;12.784;2022-11-11T13:40:42;97891.16;;;13.97
73894;BMP280;62699;50.534;12.784;2022-11-11T13:45:50;97903.41;;;13.92
73894;BMP280;62699;50.534;12.784;2022-11-11T13:50:51;97897.94;;;13.87
73894;BMP280;62699;50.534;12.784;2022-11-11T13:55:52;97904.13;;;13.67
73894;BMP280;62699;50.534;12.784;2022-11-11T14:01:03;97901.78;;;13.54
73894;BMP280;62699;50.534;12.784;2022-11-11T14:21:46;97905.59;;;12.72
73894;BMP280;62699;50.534;12.784;2022-11-11T14:26:57;97902.81;;;12.52
73894;BMP280;62699;50.534;12.784;2022-11-11T14:47:36;97933.69;;;11.54
73894;BMP280;62699;50.534;12.784;2022-11-11T14:52:40;97932.91;;;11.30
73894;BMP280;62699;50.534;12.784;2022-11-11T14:57:48;97930.66;;;11.05
73894;BMP280;62699;50.534;12.784;2022-11-11T15:08:21;97935.91;;;10.57
73894;BMP280;62699;50.534;12.784;2022-11-11T15:19:34;97934.44;;;10.20
73894;BMP280;62699;50.534;12.784;2022-11-11T15:30:12;97937.13;;;10.01
73894;BMP280;62699;50.534;12.784;2022-11-11T15:35:34;97932.63;;;9.71
73894;BMP280;62699;50.534;12.784;2022-11-11T15:40:47;97926.78;;;9.54
73894;BMP280;62699;50.534;12.784;2022-11-11T15:45:56;97918.28;;;9.74
73894;BMP280;62699;50.534;12.784;2022-11-11T15:51:29;97924.25;;;9.60
73894;BMP280;62699;50.534;12.784;2022-11-11T15:56:31;97937.75;;;9.29
73894;BMP280;62699;50.534;12.784;2022-11-11T16:01:32;97952.44;;;9.06
73894;BMP280;62699;50.534;12.784;2022-11-11T16:06:34;97952.03;;;8.86
73894;BMP280;62699;50.534;12.784;2022-11-11T16:11:38;97951.38;;;8.73
73894;BMP280;62699;50.534;12.784;2022-11-11T16:16:39;97941.53;;;8.70
73894;BMP280;62699;50.534;12.784;2022-11-11T16:21:46;97946.19;;;8.57
73894;BMP280;62699;50.534;12.784;2022-11-11T16:26:48;97945.72;;;8.49
73894;BMP280;62699;50.534;12.784;2022-11-11T16:31:48;97938.41;;;8.50
73894;BMP280;62699;50.534;12.784;2022-11-11T16:37:09;97942.75;;;8.56
73894;BMP280;62699;50.534;12.784;2022-11-11T16:52:52;97945.22;;;8.07
73894;BMP280;62699;50.534;12.784;2022-11-11T16:57:53;97949.03;;;7.84
73894;BMP280;62699;50.534;12.784;2022-11-11T17:03:07;97957.97;;;7.69
73894;BMP280;62699;50.534;12.784;2022-11-11T17:13:28;97964.22;;;7.40
73894;BMP280;62699;50.534;12.784;2022-11-11T17:18:32;97956.59;;;7.26
73894;BMP280;62699;50.534;12.784;2022-11-11T17:23:33;97956.56;;;7.14
73894;BMP280;62699;50.534;12.784;2022-11-11T17:28:36;97971.88;;;7.13
73894;BMP280;62699;50.534;12.784;2022-11-11T17:33:36;97970.72;;;7.01
73894;BMP280;62699;50.534;12.784;2022-11-11T17:38:37;97976.97;;;6.95
73894;BMP280;62699;50.534;12.784;2022-11-11T17:43:38;97980.22;;;6.90
73894;BMP280;62699;50.534;12.784;2022-11-11T17:48:39;97967.31;;;6.85
73894;BMP280;62699;50.534;12.784;2022-11-11T17:53:39;97974.75;;;6.81
73894;BMP280;62699;50.534;12.784;2022-11-11T17:58:39;97974.91;;;6.74
73894;BMP280;62699;50.534;12.784;2022-11-11T18:03:40;97978.97;;;6.65
73894;BMP280;62699;50.534;12.784;2022-11-11T18:08:40;97992.53;;;6.58
73894;BMP280;62699;50.534;12.784;2022-11-11T18:13:41;98002.66;;;6.51
73894;BMP280;62699;50.534;12.784;2022-11-11T18:18:43;97996.00;;;6.43
73894;BMP280;62699;50.534;12.784;2022-11-11T18:23:44;98002.69;;;6.35
73894;BMP280;62699;50.534;12.784;2022-11-11T18:28:44;97994.09;;;6.27
73894;BMP280;62699;50.534;12.784;2022-11-11T18:33:44;97989.56;;;6.24
73894;BMP280;62699;50.534;12.784;2022-11-11T18:38:45;97998.09;;;6.19
73894;BMP280;62699;50.534;12.784;2022-11-11T18:43:48;97994.94;;;6.08
73894;BMP280;62699;50.534;12.784;2022-11-11T18:48:56;97997.47;;;5.99
73894;BMP280;62699;50.534;12.784;2022-11-11T18:53:56;97990.41;;;5.89
73894;BMP280;62699;50.534;12.784;2022-11-11T18:58:58;97990.59;;;5.81
73894;BMP280;62699;50.534;12.784;2022-11-11T19:04:05;97992.94;;;5.79
73894;BMP280;62699;50.534;12.784;2022-11-11T19:09:07;97991.28;;;5.69
73894;BMP280;62699;50.534;12.784;2022-11-11T19:14:09;97987.63;;;5.60
73894;BMP280;62699;50.534;12.784;2022-11-11T19:19:11;97996.22;;;5.51
73894;BMP280;62699;50.534;12.784;2022-11-11T19:24:12;98002.06;;;5.46
73894;BMP280;62699;50.534;12.784;2022-11-11T19:29:50;98014.41;;;5.40
73894;BMP280;62699;50.534;12.784;2022-11-11T19:34:51;98018.44;;;5.28
73894;BMP280;62699;50.534;12.784;2022-11-11T19:39:51;98027.31;;;5.25
73894;BMP280;62699;50.534;12.784;2022-11-11T19:44:51;98027.84;;;5.17
73894;BMP280;62699;50.534;12.784;2022-11-11T19:49:51;98035.56;;;5.11
73894;BMP280;62699;50.534;12.784;2022-11-11T19:54:52;98039.13;;;5.05
73894;BMP280;62699;50.534;12.784;2022-11-11T19:59:52;98038.09;;;4.98
73894;BMP280;62699;50.534;12.784;2022-11-11T20:04:52;98032.06;;;4.94
73894;BMP280;62699;50.534;12.784;2022-11-11T20:09:53;98044.06;;;4.86
73894;BMP280;62699;50.534;12.784;2022-11-11T20:14:53;98043.69;;;4.84
73894;BMP280;62699;50.534;12.784;2022-11-11T20:19:53;98044.16;;;4.79
73894;BMP280;62699;50.534;12.784;2022-11-11T20:24:54;98046.13;;;4.75
73894;BMP280;62699;50.534;12.784;2022-11-11T20:29:54;98056.06;;;4.75
73894;BMP280;62699;50.534;12.784;2022-11-11T20:34:55;98053.47;;;4.71
73894;BMP280;62699;50.534;12.784;2022-11-11T20:39:55;98061.47;;;4.71
73894;BMP280;62699;50.534;12.784;2022-11-11T20:44:55;98056.13;;;4.71
73894;BMP280;62699;50.534;12.784;2022-11-11T20:49:56;98056.19;;;4.68
73894;BMP280;62699;50.534;12.784;2022-11-11T20:54:56;98053.94;;;4.66
73894;BMP280;62699;50.534;12.784;2022-11-11T20:59:56;98053.94;;;4.66
73894;BMP280;62699;50.534;12.784;2022-11-11T21:04:57;98058.56;;;4.62
73894;BMP280;62699;50.534;12.784;2022-11-11T21:09:57;98060.06;;;4.63
73894;BMP280;62699;50.534;12.784;2022-11-11T21:14:58;98060.50;;;4.58
73894;BMP280;62699;50.534;12.784;2022-11-11T21:19:58;98062.03;;;4.59
73894;BMP280;62699;50.534;12.784;2022-11-11T21:24:58;98053.38;;;4.55
73894;BMP280;62699;50.534;12.784;2022-11-11T21:29:59;98061.06;;;4.49
73894;BMP280;62699;50.534;12.784;2022-11-11T21:34:59;98061.13;;;4.46
73894;BMP280;62699;50.534;12.784;2022-11-11T21:39:59;98064.59;;;4.43
73894;BMP280;62699;50.534;12.784;2022-11-11T21:44:59;98066.91;;;4.41
73894;BMP280;62699;50.534;12.784;2022-11-11T21:50:00;98065.13;;;4.34
73894;BMP280;62699;50.534;12.784;2022-11-11T21:55:00;98060.59;;;4.31
73894;BMP280;62699;50.534;12.784;2022-11-11T22:00:01;98056.47;;;4.27
73894;BMP280;62699;50.534;12.784;2022-11-11T22:05:01;98067.56;;;4.21
73894;BMP280;62699;50.534;12.784;2022-11-11T22:10:03;98068.38;;;4.18
73894;BMP280;62699;50.534;12.784;2022-11-11T22:15:04;98066.94;;;4.14
73894;BMP280;62699;50.534;12.784;2022-11-11T22:20:05;98063.19;;;4.08
73894;BMP280;62699;50.534;12.784;2022-11-11T22:25:06;98072.03;;;4.05
73894;BMP280;62699;50.534;12.784;2022-11-11T22:30:07;98070.91;;;4.02
73894;BMP280;62699;50.534;12.784;2022-11-11T22:35:07;98072.50;;;3.96
73894;BMP280;62699;50.534;12.784;2022-11-11T22:40:08;98078.28;;;3.91
73894;BMP280;62699;50.534;12.784;2022-11-11T22:45:09;98079.47;;;3.87
73894;BMP280;62699;50.534;12.784;2022-11-11T22:50:09;98082.19;;;3.83
73894;BMP280;62699;50.534;12.784;2022-11-11T22:55:09;98080.34;;;3.80
73894;BMP280;62699;50.534;12.784;2022-11-11T23:00:11;98080.34;;;3.76
73894;BMP280;62699;50.534;12.784;2022-11-11T23:05:12;98079.69;;;3.72
73894;BMP280;62699;50.534;12.784;2022-11-11T23:10:12;98072.88;;;3.68
73894;BMP280;62699;50.534;12.784;2022-11-11T23:15:12;98072.19;;;3.64
73894;BMP280;62699;50.534;12.784;2022-11-11T23:20:13;98074.50;;;3.58
73894;BMP280;62699;50.534;12.784;2022-11-11T23:25:13;98064.31;;;3.53
73894;BMP280;62699;50.534;12.784;2022-11-11T23:30:14;98073.84;;;3.51
73894;BMP280;62699;50.534;12.784;2022-11-11T23:35:14;98071.97;;;3.48
73894;BMP280;62699;50.534;12.784;2022-11-11T23:40:14;98070.16;;;3.41
73894;BMP280;62699;50.534;12.784;2022-11-11T23:45:15;98073.22;;;3.39
73894;BMP280;62699;50.534;12.784;2022-11-11T23:50:15;98062.66;;;3.32
73894;BMP280;62699;50.534;12.784;2022-11-11T23:55:16;98060.41;;;3.27
